sensor_id;sensor_type;location;lat;lon;timestamp;P1;durP1;ratioP1;P2;durP2;ratioP2
24521;SDS011;12680;57.804;12.190;2023-11-19T00:00:13;3.15;;;2.20;;
24521;SDS011;12680;57.804;12.190;2023-11-19T00:02:41;5.70;;;2.20;;
24521;SDS011;12680;57.804;12.190;2023-11-19T00:05:09;7.05;;;2.35;;
24521;SDS011;12680;57.804;12.190;2023-11-19T00:07:38;3.15;;;1.80;;
24521;SDS011;12680;57.804;12.190;2023-11-19T00:10:09;3.13;;;1.90;;
24521;SDS011;12680;57.804;12.190;2023-11-19T00:12:41;3.58;;;1.88;;
24521;SDS011;12680;57.804;12.190;2023-11-19T00:15:10;3.83;;;2.05;;
24521;SDS011;12680;57.804;12.190;2023-11-19T00:17:41;3.17;;;2.03;;
24521;SDS011;12680;57.804;12.190;2023-11-19T00:20:15;3.25;;;1.90;;
24521;SDS011;12680;57.804;12.190;2023-11-19T00:22:43;3.55;;;1.98;;
24521;SDS011;12680;57.804;12.190;2023-11-19T00:25:16;3.92;;;2.03;;
24521;SDS011;12680;57.804;12.190;2023-11-19T00:27:43;4.05;;;1.65;;
24521;SDS011;12680;57.804;12.190;2023-11-19T00:30:13;3.92;;;2.00;;
24521;SDS011;12680;57.804;12.190;2023-11-19T00:32:41;3.53;;;1.88;;
24521;SDS011;12680;57.804;12.190;2023-11-19T00:35:08;2.95;;;2.00;;
24521;SDS011;12680;57.804;12.190;2023-11-19T00:37:41;3.05;;;1.88;;
24521;SDS011;12680;57.804;12.190;2023-11-19T00:40:09;2.70;;;1.92;;
24521;SDS011;12680;57.804;12.190;2023-11-19T00:42:37;2.88;;;1.85;;
24521;SDS011;12680;57.804;12.190;2023-11-19T00:45:04;4.15;;;2.28;;
24521;SDS011;12680;57.804;12.190;2023-11-19T00:47:39;4.68;;;2.00;;
24521;SDS011;12680;57.804;12.190;2023-11-19T00:50:12;3.20;;;2.10;;
24521;SDS011;12680;57.804;12.190;2023-11-19T00:52:42;4.63;;;2.20;;
24521;SDS011;12680;57.804;12.190;2023-11-19T00:55:13;3.17;;;1.90;;
24521;SDS011;12680;57.804;12.190;2023-11-19T00:57:43;4.32;;;2.17;;
24521;SDS011;12680;57.804;12.190;2023-11-19T01:00:14;2.85;;;1.83;;
24521;SDS011;12680;57.804;12.190;2023-11-19T01:02:46;5.38;;;1.77;;
24521;SDS011;12680;57.804;12.190;2023-11-19T01:05:16;3.95;;;2.22;;
24521;SDS011;12680;57.804;12.190;2023-11-19T01:07:49;3.25;;;2.03;;
24521;SDS011;12680;57.804;12.190;2023-11-19T01:10:21;2.15;;;1.77;;
24521;SDS011;12680;57.804;12.190;2023-11-19T01:12:48;2.47;;;1.65;;
24521;SDS011;12680;57.804;12.190;2023-11-19T01:15:16;3.67;;;2.20;;
24521;SDS011;12680;57.804;12.190;2023-11-19T01:17:45;2.80;;;1.70;;
24521;SDS011;12680;57.804;12.190;2023-11-19T01:20:15;3.10;;;1.70;;
24521;SDS011;12680;57.804;12.190;2023-11-19T01:22:47;3.28;;;1.92;;
24521;SDS011;12680;57.804;12.190;2023-11-19T01:25:15;5.65;;;2.17;;
24521;SDS011;12680;57.804;12.190;2023-11-19T01:27:42;3.53;;;1.90;;
24521;SDS011;12680;57.804;12.190;2023-11-19T01:30:13;5.13;;;2.08;;
24521;SDS011;12680;57.804;12.190;2023-11-19T01:32:46;2.92;;;1.80;;
24521;SDS011;12680;57.804;12.190;2023-11-19T01:35:17;3.85;;;1.90;;
24521;SDS011;12680;57.804;12.190;2023-11-19T01:37:48;3.15;;;2.10;;
24521;SDS011;12680;57.804;12.190;2023-11-19T01:40:20;2.65;;;1.67;;
24521;SDS011;12680;57.804;12.190;2023-11-19T01:42:47;2.07;;;1.87;;
24521;SDS011;12680;57.804;12.190;2023-11-19T01:45:21;6.75;;;2.20;;
24521;SDS011;12680;57.804;12.190;2023-11-19T01:47:54;3.08;;;1.75;;
24521;SDS011;12680;57.804;12.190;2023-11-19T01:50:22;2.78;;;1.92;;
24521;SDS011;12680;57.804;12.190;2023-11-19T01:52:52;2.65;;;1.70;;
24521;SDS011;12680;57.804;12.190;2023-11-19T01:55:20;2.28;;;1.60;;
24521;SDS011;12680;57.804;12.190;2023-11-19T01:57:48;3.75;;;1.90;;
24521;SDS011;12680;57.804;12.190;2023-11-19T02:00:17;3.00;;;1.73;;
24521;SDS011;12680;57.804;12.190;2023-11-19T02:02:48;3.35;;;1.80;;
24521;SDS011;12680;57.804;12.190;2023-11-19T02:05:15;3.30;;;2.10;;
24521;SDS011;12680;57.804;12.190;2023-11-19T02:07:42;2.10;;;1.80;;
24521;SDS011;12680;57.804;12.190;2023-11-19T02:10:09;2.05;;;1.55;;
24521;SDS011;12680;57.804;12.190;2023-11-19T02:12:40;2.35;;;1.67;;
24521;SDS011;12680;57.804;12.190;2023-11-19T02:15:11;2.58;;;1.70;;
24521;SDS011;12680;57.804;12.190;2023-11-19T02:17:38;1.80;;;1.52;;
24521;SDS011;12680;57.804;12.190;2023-11-19T02:20:05;2.65;;;1.70;;
24521;SDS011;12680;57.804;12.190;2023-11-19T02:22:35;2.55;;;1.52;;
24521;SDS011;12680;57.804;12.190;2023-11-19T02:25:04;3.17;;;1.90;;
24521;SDS011;12680;57.804;12.190;2023-11-19T02:30:13;1.88;;;1.58;;
24521;SDS011;12680;57.804;12.190;2023-11-19T02:32:41;2.45;;;1.80;;
24521;SDS011;12680;57.804;12.190;2023-11-19T02:35:08;3.28;;;2.10;;
24521;SDS011;12680;57.804;12.190;2023-11-19T02:37:35;4.15;;;2.08;;
24521;SDS011;12680;57.804;12.190;2023-11-19T02:40:02;2.58;;;1.88;;
24521;SDS011;12680;57.804;12.190;2023-11-19T02:42:30;2.15;;;1.70;;
24521;SDS011;12680;57.804;12.190;2023-11-19T02:44:58;2.17;;;1.48;;
24521;SDS011;12680;57.804;12.190;2023-11-19T02:47:25;2.53;;;1.77;;
24521;SDS011;12680;57.804;12.190;2023-11-19T02:49:52;2.65;;;1.77;;
24521;SDS011;12680;57.804;12.190;2023-11-19T02:52:19;4.68;;;1.80;;
24521;SDS011;12680;57.804;12.190;2023-11-19T02:54:46;5.63;;;2.10;;
24521;SDS011;12680;57.804;12.190;2023-11-19T02:57:13;3.13;;;1.67;;
24521;SDS011;12680;57.804;12.190;2023-11-19T02:59:43;1.90;;;1.70;;
24521;SDS011;12680;57.804;12.190;2023-11-19T03:02:09;4.57;;;1.92;;
24521;SDS011;12680;57.804;12.190;2023-11-19T03:04:42;2.40;;;1.65;;
24521;SDS011;12680;57.804;12.190;2023-11-19T03:07:10;2.00;;;1.50;;
24521;SDS011;12680;57.804;12.190;2023-11-19T03:09:37;4.82;;;1.88;;
24521;SDS011;12680;57.804;12.190;2023-11-19T03:12:07;3.40;;;1.88;;
24521;SDS011;12680;57.804;12.190;2023-11-19T03:14:34;2.35;;;1.55;;
24521;SDS011;12680;57.804;12.190;2023-11-19T03:17:01;2.15;;;1.60;;
24521;SDS011;12680;57.804;12.190;2023-11-19T03:19:29;2.38;;;1.80;;
24521;SDS011;12680;57.804;12.190;2023-11-19T03:22:01;3.45;;;1.83;;
24521;SDS011;12680;57.804;12.190;2023-11-19T03:24:28;2.58;;;1.70;;
24521;SDS011;12680;57.804;12.190;2023-11-19T03:26:55;1.52;;;1.42;;
24521;SDS011;12680;57.804;12.190;2023-11-19T03:29:22;2.25;;;1.67;;
24521;SDS011;12680;57.804;12.190;2023-11-19T03:31:49;2.47;;;1.88;;
24521;SDS011;12680;57.804;12.190;2023-11-19T03:34:18;2.72;;;1.67;;
24521;SDS011;12680;57.804;12.190;2023-11-19T03:36:45;2.42;;;1.75;;
24521;SDS011;12680;57.804;12.190;2023-11-19T03:39:12;2.78;;;1.67;;
24521;SDS011;12680;57.804;12.190;2023-11-19T03:41:39;1.95;;;1.25;;
24521;SDS011;12680;57.804;12.190;2023-11-19T03:44:08;2.05;;;1.38;;
24521;SDS011;12680;57.804;12.190;2023-11-19T03:46:38;2.67;;;1.60;;
24521;SDS011;12680;57.804;12.190;2023-11-19T03:49:05;3.67;;;1.90;;
24521;SDS011;12680;57.804;12.190;2023-11-19T03:51:33;2.75;;;1.70;;
24521;SDS011;12680;57.804;12.190;2023-11-19T03:54:01;2.88;;;1.50;;
24521;SDS011;12680;57.804;12.190;2023-11-19T03:56:28;3.72;;;1.67;;
24521;SDS011;12680;57.804;12.190;2023-11-19T03:58:54;4.10;;;1.90;;
24521;SDS011;12680;57.804;12.190;2023-11-19T04:01:21;3.28;;;2.00;;
24521;SDS011;12680;57.804;12.190;2023-11-19T04:03:48;3.60;;;1.83;;
24521;SDS011;12680;57.804;12.190;2023-11-19T04:06:17;1.75;;;1.42;;
24521;SDS011;12680;57.804;12.190;2023-11-19T04:08:44;2.70;;;1.48;;
24521;SDS011;12680;57.804;12.190;2023-11-19T04:11:11;4.68;;;1.92;;
24521;SDS011;12680;57.804;12.190;2023-11-19T04:13:38;3.33;;;1.75;;
24521;SDS011;12680;57.804;12.190;2023-11-19T04:16:05;1.40;;;1.30;;
24521;SDS011;12680;57.804;12.190;2023-11-19T04:18:32;2.78;;;1.67;;
24521;SDS011;12680;57.804;12.190;2023-11-19T04:20:59;1.98;;;1.48;;
24521;SDS011;12680;57.804;12.190;2023-11-19T04:23:26;2.25;;;1.60;;
24521;SDS011;12680;57.804;12.190;2023-11-19T04:25:53;2.20;;;1.50;;
24521;SDS011;12680;57.804;12.190;2023-11-19T04:28:19;3.53;;;1.63;;
24521;SDS011;12680;57.804;12.190;2023-11-19T04:30:47;2.63;;;1.65;;
24521;SDS011;12680;57.804;12.190;2023-11-19T04:33:13;2.42;;;1.58;;
24521;SDS011;12680;57.804;12.190;2023-11-19T04:35:41;2.42;;;1.63;;
24521;SDS011;12680;57.804;12.190;2023-11-19T04:38:08;2.88;;;1.70;;
24521;SDS011;12680;57.804;12.190;2023-11-19T04:40:34;2.33;;;1.83;;
24521;SDS011;12680;57.804;12.190;2023-11-19T04:43:01;3.08;;;1.50;;
24521;SDS011;12680;57.804;12.190;2023-11-19T04:45:28;5.22;;;1.63;;
24521;SDS011;12680;57.804;12.190;2023-11-19T04:47:55;2.30;;;1.45;;
24521;SDS011;12680;57.804;12.190;2023-11-19T04:50:22;2.78;;;1.67;;
24521;SDS011;12680;57.804;12.190;2023-11-19T04:52:49;2.42;;;1.60;;
24521;SDS011;12680;57.804;12.190;2023-11-19T04:55:16;3.15;;;1.70;;
24521;SDS011;12680;57.804;12.190;2023-11-19T04:57:44;3.72;;;1.65;;
24521;SDS011;12680;57.804;12.190;2023-11-19T05:00:11;3.78;;;1.75;;
24521;SDS011;12680;57.804;12.190;2023-11-19T05:02:41;2.80;;;1.70;;
24521;SDS011;12680;57.804;12.190;2023-11-19T05:05:08;2.25;;;1.92;;
24521;SDS011;12680;57.804;12.190;2023-11-19T05:07:36;2.78;;;1.30;;
24521;SDS011;12680;57.804;12.190;2023-11-19T05:10:04;2.35;;;1.63;;
24521;SDS011;12680;57.804;12.190;2023-11-19T05:12:32;2.40;;;1.90;;
24521;SDS011;12680;57.804;12.190;2023-11-19T05:14:59;1.92;;;1.60;;
24521;SDS011;12680;57.804;12.190;2023-11-19T05:17:26;2.72;;;1.67;;
24521;SDS011;12680;57.804;12.190;2023-11-19T05:19:53;1.92;;;1.50;;
24521;SDS011;12680;57.804;12.190;2023-11-19T05:22:20;2.35;;;1.80;;
24521;SDS011;12680;57.804;12.190;2023-11-19T05:24:47;2.28;;;1.70;;
24521;SDS011;12680;57.804;12.190;2023-11-19T05:27:15;2.13;;;1.38;;
24521;SDS011;12680;57.804;12.190;2023-11-19T05:29:42;1.48;;;1.20;;
24521;SDS011;12680;57.804;12.190;2023-11-19T05:32:10;2.28;;;1.60;;
24521;SDS011;12680;57.804;12.190;2023-11-19T05:34:37;2.78;;;1.70;;
24521;SDS011;12680;57.804;12.190;2023-11-19T05:37:17;2.55;;;1.80;;
24521;SDS011;12680;57.804;12.190;2023-11-19T05:39:45;1.83;;;1.50;;
24521;SDS011;12680;57.804;12.190;2023-11-19T05:42:12;1.83;;;1.50;;
24521;SDS011;12680;57.804;12.190;2023-11-19T05:44:39;2.03;;;1.60;;
24521;SDS011;12680;57.804;12.190;2023-11-19T05:47:07;1.85;;;1.38;;
24521;SDS011;12680;57.804;12.190;2023-11-19T05:49:34;3.40;;;1.48;;
24521;SDS011;12680;57.804;12.190;2023-11-19T05:52:01;2.33;;;1.50;;
24521;SDS011;12680;57.804;12.190;2023-11-19T05:54:29;2.17;;;1.55;;
24521;SDS011;12680;57.804;12.190;2023-11-19T05:56:57;2.60;;;1.73;;
24521;SDS011;12680;57.804;12.190;2023-11-19T05:59:24;3.50;;;1.60;;
24521;SDS011;12680;57.804;12.190;2023-11-19T06:01:52;1.92;;;1.38;;
24521;SDS011;12680;57.804;12.190;2023-11-19T06:04:19;4.97;;;1.67;;
24521;SDS011;12680;57.804;12.190;2023-11-19T06:06:46;1.92;;;1.60;;
24521;SDS011;12680;57.804;12.190;2023-11-19T06:09:12;6.53;;;1.83;;
24521;SDS011;12680;57.804;12.190;2023-11-19T06:11:39;4.43;;;1.85;;
24521;SDS011;12680;57.804;12.190;2023-11-19T06:14:06;1.73;;;1.42;;
24521;SDS011;12680;57.804;12.190;2023-11-19T06:16:33;3.28;;;1.60;;
24521;SDS011;12680;57.804;12.190;2023-11-19T06:19:00;2.05;;;1.40;;
24521;SDS011;12680;57.804;12.190;2023-11-19T06:21:28;5.35;;;1.67;;
24521;SDS011;12680;57.804;12.190;2023-11-19T06:23:54;1.88;;;1.30;;
24521;SDS011;12680;57.804;12.190;2023-11-19T06:26:21;1.85;;;1.23;;
24521;SDS011;12680;57.804;12.190;2023-11-19T06:28:48;1.80;;;1.30;;
24521;SDS011;12680;57.804;12.190;2023-11-19T06:31:15;2.65;;;1.40;;
24521;SDS011;12680;57.804;12.190;2023-11-19T06:33:42;2.00;;;1.50;;
24521;SDS011;12680;57.804;12.190;2023-11-19T06:36:09;2.35;;;1.65;;
24521;SDS011;12680;57.804;12.190;2023-11-19T06:38:36;1.88;;;1.30;;
24521;SDS011;12680;57.804;12.190;2023-11-19T06:41:06;2.17;;;1.63;;
24521;SDS011;12680;57.804;12.190;2023-11-19T06:43:36;1.30;;;1.05;;
24521;SDS011;12680;57.804;12.190;2023-11-19T06:46:14;2.28;;;1.50;;
24521;SDS011;12680;57.804;12.190;2023-11-19T06:48:44;3.40;;;1.50;;
24521;SDS011;12680;57.804;12.190;2023-11-19T06:51:11;1.90;;;1.40;;
24521;SDS011;12680;57.804;12.190;2023-11-19T06:53:39;2.70;;;1.63;;
24521;SDS011;12680;57.804;12.190;2023-11-19T06:56:20;2.22;;;1.48;;
24521;SDS011;12680;57.804;12.190;2023-11-19T06:58:53;2.65;;;1.45;;
24521;SDS011;12680;57.804;12.190;2023-11-19T07:01:20;2.40;;;1.60;;
24521;SDS011;12680;57.804;12.190;2023-11-19T07:03:48;3.38;;;1.20;;
24521;SDS011;12680;57.804;12.190;2023-11-19T07:06:15;3.53;;;1.55;;
24521;SDS011;12680;57.804;12.190;2023-11-19T07:08:59;2.60;;;1.48;;
24521;SDS011;12680;57.804;12.190;2023-11-19T07:11:26;2.28;;;1.60;;
24521;SDS011;12680;57.804;12.190;2023-11-19T07:13:53;1.85;;;1.58;;
24521;SDS011;12680;57.804;12.190;2023-11-19T07:16:23;2.30;;;1.40;;
24521;SDS011;12680;57.804;12.190;2023-11-19T07:18:50;2.67;;;1.67;;
24521;SDS011;12680;57.804;12.190;2023-11-19T07:21:17;3.47;;;1.70;;
24521;SDS011;12680;57.804;12.190;2023-11-19T07:23:46;1.92;;;1.35;;
24521;SDS011;12680;57.804;12.190;2023-11-19T07:26:13;1.52;;;1.23;;
24521;SDS011;12680;57.804;12.190;2023-11-19T07:28:40;3.70;;;1.50;;
24521;SDS011;12680;57.804;12.190;2023-11-19T07:31:07;2.17;;;1.58;;
24521;SDS011;12680;57.804;12.190;2023-11-19T07:33:36;2.25;;;1.65;;
24521;SDS011;12680;57.804;12.190;2023-11-19T07:36:03;1.67;;;1.30;;
24521;SDS011;12680;57.804;12.190;2023-11-19T07:38:31;2.80;;;1.70;;
24521;SDS011;12680;57.804;12.190;2023-11-19T07:41:00;2.10;;;1.48;;
24521;SDS011;12680;57.804;12.190;2023-11-19T07:43:27;2.03;;;1.27;;
24521;SDS011;12680;57.804;12.190;2023-11-19T07:45:54;2.53;;;1.42;;
24521;SDS011;12680;57.804;12.190;2023-11-19T07:48:21;2.35;;;1.50;;
24521;SDS011;12680;57.804;12.190;2023-11-19T07:50:49;2.92;;;1.50;;
24521;SDS011;12680;57.804;12.190;2023-11-19T07:53:16;2.28;;;1.20;;
24521;SDS011;12680;57.804;12.190;2023-11-19T07:55:47;1.75;;;1.13;;
24521;SDS011;12680;57.804;12.190;2023-11-19T07:58:14;2.33;;;1.67;;
24521;SDS011;12680;57.804;12.190;2023-11-19T08:00:44;2.38;;;1.80;;
24521;SDS011;12680;57.804;12.190;2023-11-19T08:03:11;1.98;;;1.50;;
24521;SDS011;12680;57.804;12.190;2023-11-19T08:05:38;2.28;;;1.52;;
24521;SDS011;12680;57.804;12.190;2023-11-19T08:08:05;2.47;;;1.40;;
24521;SDS011;12680;57.804;12.190;2023-11-19T08:10:33;2.97;;;1.75;;
24521;SDS011;12680;57.804;12.190;2023-11-19T08:13:00;2.58;;;1.63;;
24521;SDS011;12680;57.804;12.190;2023-11-19T08:15:29;2.92;;;1.88;;
24521;SDS011;12680;57.804;12.190;2023-11-19T08:17:59;3.95;;;1.65;;
24521;SDS011;12680;57.804;12.190;2023-11-19T08:20:26;2.08;;;1.40;;
24521;SDS011;12680;57.804;12.190;2023-11-19T08:22:53;2.22;;;1.70;;
24521;SDS011;12680;57.804;12.190;2023-11-19T08:25:20;2.70;;;1.77;;
24521;SDS011;12680;57.804;12.190;2023-11-19T08:27:47;3.17;;;2.25;;
24521;SDS011;12680;57.804;12.190;2023-11-19T08:30:17;2.92;;;1.77;;
24521;SDS011;12680;57.804;12.190;2023-11-19T08:32:44;3.20;;;2.10;;
24521;SDS011;12680;57.804;12.190;2023-11-19T08:35:15;4.50;;;2.15;;
24521;SDS011;12680;57.804;12.190;2023-11-19T08:37:42;2.80;;;2.00;;
24521;SDS011;12680;57.804;12.190;2023-11-19T08:40:09;3.45;;;1.90;;
24521;SDS011;12680;57.804;12.190;2023-11-19T08:42:36;1.85;;;1.60;;
24521;SDS011;12680;57.804;12.190;2023-11-19T08:45:05;2.35;;;1.65;;
24521;SDS011;12680;57.804;12.190;2023-11-19T08:47:33;5.63;;;2.03;;
24521;SDS011;12680;57.804;12.190;2023-11-19T08:49:59;4.03;;;2.30;;
24521;SDS011;12680;57.804;12.190;2023-11-19T08:52:30;2.90;;;2.13;;
24521;SDS011;12680;57.804;12.190;2023-11-19T08:55:00;2.20;;;1.88;;
24521;SDS011;12680;57.804;12.190;2023-11-19T08:57:31;3.35;;;2.55;;
24521;SDS011;12680;57.804;12.190;2023-11-19T09:00:01;2.72;;;2.00;;
24521;SDS011;12680;57.804;12.190;2023-11-19T09:02:34;4.70;;;2.28;;
24521;SDS011;12680;57.804;12.190;2023-11-19T09:05:04;4.20;;;2.00;;
24521;SDS011;12680;57.804;12.190;2023-11-19T09:07:31;3.50;;;2.30;;
24521;SDS011;12680;57.804;12.190;2023-11-19T09:09:58;4.20;;;2.20;;
24521;SDS011;12680;57.804;12.190;2023-11-19T09:12:25;3.83;;;2.17;;
24521;SDS011;12680;57.804;12.190;2023-11-19T09:14:52;3.70;;;2.47;;
24521;SDS011;12680;57.804;12.190;2023-11-19T09:17:19;2.88;;;2.10;;
24521;SDS011;12680;57.804;12.190;2023-11-19T09:19:45;3.42;;;2.28;;
24521;SDS011;12680;57.804;12.190;2023-11-19T09:22:12;4.47;;;2.58;;
24521;SDS011;12680;57.804;12.190;2023-11-19T09:24:42;4.38;;;2.13;;
24521;SDS011;12680;57.804;12.190;2023-11-19T09:27:11;3.10;;;2.15;;
24521;SDS011;12680;57.804;12.190;2023-11-19T09:29:42;6.88;;;2.30;;
24521;SDS011;12680;57.804;12.190;2023-11-19T09:32:09;4.15;;;2.30;;
24521;SDS011;12680;57.804;12.190;2023-11-19T09:34:36;2.45;;;1.85;;
24521;SDS011;12680;57.804;12.190;2023-11-19T09:37:07;4.05;;;2.13;;
24521;SDS011;12680;57.804;12.190;2023-11-19T09:39:50;2.42;;;1.90;;
24521;SDS011;12680;57.804;12.190;2023-11-19T09:42:19;4.78;;;2.40;;
24521;SDS011;12680;57.804;12.190;2023-11-19T09:44:47;4.15;;;2.30;;
24521;SDS011;12680;57.804;12.190;2023-11-19T09:47:15;3.05;;;2.50;;
24521;SDS011;12680;57.804;12.190;2023-11-19T09:49:55;5.53;;;2.22;;
24521;SDS011;12680;57.804;12.190;2023-11-19T09:52:24;2.50;;;2.10;;
24521;SDS011;12680;57.804;12.190;2023-11-19T09:54:54;3.33;;;2.42;;
24521;SDS011;12680;57.804;12.190;2023-11-19T09:57:25;4.15;;;2.22;;
24521;SDS011;12680;57.804;12.190;2023-11-19T09:59:53;4.80;;;2.42;;
24521;SDS011;12680;57.804;12.190;2023-11-19T10:02:28;3.28;;;2.53;;
24521;SDS011;12680;57.804;12.190;2023-11-19T10:04:59;5.00;;;2.35;;
24521;SDS011;12680;57.804;12.190;2023-11-19T10:07:36;6.72;;;4.88;;
24521;SDS011;12680;57.804;12.190;2023-11-19T10:10:05;4.25;;;3.85;;
24521;SDS011;12680;57.804;12.190;2023-11-19T10:12:33;2.65;;;2.10;;
24521;SDS011;12680;57.804;12.190;2023-11-19T10:15:04;3.58;;;2.58;;
24521;SDS011;12680;57.804;12.190;2023-11-19T10:17:38;3.97;;;2.60;;
24521;SDS011;12680;57.804;12.190;2023-11-19T10:20:09;6.00;;;2.80;;
24521;SDS011;12680;57.804;12.190;2023-11-19T10:22:37;3.17;;;2.50;;
24521;SDS011;12680;57.804;12.190;2023-11-19T10:25:05;3.50;;;2.40;;
24521;SDS011;12680;57.804;12.190;2023-11-19T10:27:56;4.57;;;2.08;;
24521;SDS011;12680;57.804;12.190;2023-11-19T10:30:27;3.47;;;2.38;;
24521;SDS011;12680;57.804;12.190;2023-11-19T10:33:05;6.45;;;2.65;;
24521;SDS011;12680;57.804;12.190;2023-11-19T10:35:50;4.80;;;3.35;;
24521;SDS011;12680;57.804;12.190;2023-11-19T10:38:24;5.78;;;2.65;;
24521;SDS011;12680;57.804;12.190;2023-11-19T10:40:51;3.42;;;2.55;;
24521;SDS011;12680;57.804;12.190;2023-11-19T10:43:20;4.97;;;3.13;;
24521;SDS011;12680;57.804;12.190;2023-11-19T10:45:49;2.65;;;2.10;;
24521;SDS011;12680;57.804;12.190;2023-11-19T10:48:19;3.45;;;2.63;;
24521;SDS011;12680;57.804;12.190;2023-11-19T10:50:51;5.15;;;3.75;;
24521;SDS011;12680;57.804;12.190;2023-11-19T10:53:21;4.63;;;2.60;;
24521;SDS011;12680;57.804;12.190;2023-11-19T10:55:52;3.70;;;2.58;;
24521;SDS011;12680;57.804;12.190;2023-11-19T10:58:25;3.45;;;2.40;;
24521;SDS011;12680;57.804;12.190;2023-11-19T11:00:55;3.42;;;2.45;;
24521;SDS011;12680;57.804;12.190;2023-11-19T11:03:29;5.07;;;2.67;;
24521;SDS011;12680;57.804;12.190;2023-11-19T11:06:06;3.55;;;2.38;;
24521;SDS011;12680;57.804;12.190;2023-11-19T11:08:39;7.10;;;3.15;;
24521;SDS011;12680;57.804;12.190;2023-11-19T11:11:13;5.38;;;3.08;;
24521;SDS011;12680;57.804;12.190;2023-11-19T11:13:43;5.50;;;2.90;;
24521;SDS011;12680;57.804;12.190;2023-11-19T11:16:13;4.55;;;3.05;;
24521;SDS011;12680;57.804;12.190;2023-11-19T11:18:49;7.13;;;2.88;;
24521;SDS011;12680;57.804;12.190;2023-11-19T11:21:17;4.70;;;2.95;;
24521;SDS011;12680;57.804;12.190;2023-11-19T11:35:19;4.30;;;2.75;;
24521;SDS011;12680;57.804;12.190;2023-11-19T11:38:17;8.45;;;3.15;;
24521;SDS011;12680;57.804;12.190;2023-11-19T11:41:14;4.78;;;2.63;;
24521;SDS011;12680;57.804;12.190;2023-11-19T11:43:50;4.28;;;2.53;;
24521;SDS011;12680;57.804;12.190;2023-11-19T11:49:04;4.50;;;2.47;;
24521;SDS011;12680;57.804;12.190;2023-11-19T11:54:11;6.53;;;2.80;;
24521;SDS011;12680;57.804;12.190;2023-11-19T11:57:03;5.13;;;3.30;;
24521;SDS011;12680;57.804;12.190;2023-11-19T12:02:09;7.15;;;3.15;;
24521;SDS011;12680;57.804;12.190;2023-11-19T12:04:41;5.70;;;2.80;;
24521;SDS011;12680;57.804;12.190;2023-11-19T12:07:16;7.57;;;3.20;;
24521;SDS011;12680;57.804;12.190;2023-11-19T12:10:28;4.73;;;2.87;;
24521;SDS011;12680;57.804;12.190;2023-11-19T12:12:38;4.00;;;2.70;;
24521;SDS011;12680;57.804;12.190;2023-11-19T12:15:12;4.75;;;3.08;;
24521;SDS011;12680;57.804;12.190;2023-11-19T12:17:49;7.55;;;2.90;;
24521;SDS011;12680;57.804;12.190;2023-11-19T12:20:22;3.67;;;2.88;;
24521;SDS011;12680;57.804;12.190;2023-11-19T12:22:54;13.07;;;3.30;;
24521;SDS011;12680;57.804;12.190;2023-11-19T12:25:22;4.80;;;2.78;;
24521;SDS011;12680;57.804;12.190;2023-11-19T12:27:50;6.00;;;2.92;;
24521;SDS011;12680;57.804;12.190;2023-11-19T12:30:24;4.80;;;2.90;;
24521;SDS011;12680;57.804;12.190;2023-11-19T12:32:53;6.63;;;3.28;;
24521;SDS011;12680;57.804;12.190;2023-11-19T12:35:21;5.43;;;3.08;;
24521;SDS011;12680;57.804;12.190;2023-11-19T12:37:50;7.88;;;3.22;;
24521;SDS011;12680;57.804;12.190;2023-11-19T12:40:19;7.15;;;2.97;;
24521;SDS011;12680;57.804;12.190;2023-11-19T12:42:48;5.43;;;3.00;;
24521;SDS011;12680;57.804;12.190;2023-11-19T12:45:16;4.72;;;3.13;;
24521;SDS011;12680;57.804;12.190;2023-11-19T12:47:46;4.90;;;3.22;;
24521;SDS011;12680;57.804;12.190;2023-11-19T12:50:15;4.18;;;2.83;;
24521;SDS011;12680;57.804;12.190;2023-11-19T12:52:55;6.05;;;3.17;;
24521;SDS011;12680;57.804;12.190;2023-11-19T12:55:26;4.93;;;2.67;;
24521;SDS011;12680;57.804;12.190;2023-11-19T12:57:56;6.50;;;2.90;;
24521;SDS011;12680;57.804;12.190;2023-11-19T13:00:28;5.22;;;2.88;;
24521;SDS011;12680;57.804;12.190;2023-11-19T13:02:56;6.13;;;2.88;;
24521;SDS011;12680;57.804;12.190;2023-11-19T13:05:31;5.63;;;2.58;;
24521;SDS011;12680;57.804;12.190;2023-11-19T13:08:03;3.17;;;2.38;;
24521;SDS011;12680;57.804;12.190;2023-11-19T13:10:37;4.97;;;2.85;;
24521;SDS011;12680;57.804;12.190;2023-11-19T13:13:19;6.88;;;2.63;;
24521;SDS011;12680;57.804;12.190;2023-11-19T13:15:46;6.90;;;3.00;;
24521;SDS011;12680;57.804;12.190;2023-11-19T13:18:15;3.13;;;2.60;;
24521;SDS011;12680;57.804;12.190;2023-11-19T13:20:43;6.38;;;2.60;;
24521;SDS011;12680;57.804;12.190;2023-11-19T13:23:13;5.60;;;2.83;;
24521;SDS011;12680;57.804;12.190;2023-11-19T13:25:45;4.88;;;3.15;;
24521;SDS011;12680;57.804;12.190;2023-11-19T13:28:12;4.45;;;2.65;;
24521;SDS011;12680;57.804;12.190;2023-11-19T13:30:43;5.22;;;2.42;;
24521;SDS011;12680;57.804;12.190;2023-11-19T13:33:10;3.63;;;2.63;;
24521;SDS011;12680;57.804;12.190;2023-11-19T13:35:41;5.60;;;2.70;;
24521;SDS011;12680;57.804;12.190;2023-11-19T13:38:11;4.53;;;2.55;;
24521;SDS011;12680;57.804;12.190;2023-11-19T13:40:38;4.88;;;2.97;;
24521;SDS011;12680;57.804;12.190;2023-11-19T13:43:05;4.03;;;2.28;;
24521;SDS011;12680;57.804;12.190;2023-11-19T13:45:33;6.90;;;2.22;;
24521;SDS011;12680;57.804;12.190;2023-11-19T13:48:00;6.43;;;2.65;;
24521;SDS011;12680;57.804;12.190;2023-11-19T13:50:30;4.97;;;2.85;;
24521;SDS011;12680;57.804;12.190;2023-11-19T13:52:58;5.10;;;2.88;;
24521;SDS011;12680;57.804;12.190;2023-11-19T13:55:25;9.95;;;2.90;;
24521;SDS011;12680;57.804;12.190;2023-11-19T13:57:52;3.85;;;2.70;;
24521;SDS011;12680;57.804;12.190;2023-11-19T14:00:19;4.32;;;2.35;;
24521;SDS011;12680;57.804;12.190;2023-11-19T14:02:48;3.35;;;2.40;;
24521;SDS011;12680;57.804;12.190;2023-11-19T14:05:15;6.18;;;2.85;;
24521;SDS011;12680;57.804;12.190;2023-11-19T14:08:03;3.28;;;2.25;;
24521;SDS011;12680;57.804;12.190;2023-11-19T14:10:49;3.53;;;2.47;;
24521;SDS011;12680;57.804;12.190;2023-11-19T14:13:16;4.22;;;2.60;;
24521;SDS011;12680;57.804;12.190;2023-11-19T14:15:43;7.72;;;2.15;;
24521;SDS011;12680;57.804;12.190;2023-11-19T14:18:15;9.00;;;2.70;;
24521;SDS011;12680;57.804;12.190;2023-11-19T14:20:42;4.40;;;2.47;;
24521;SDS011;12680;57.804;12.190;2023-11-19T14:23:10;4.68;;;2.78;;
24521;SDS011;12680;57.804;12.190;2023-11-19T14:25:37;6.05;;;2.67;;
24521;SDS011;12680;57.804;12.190;2023-11-19T14:28:04;4.38;;;2.47;;
24521;SDS011;12680;57.804;12.190;2023-11-19T14:30:32;3.58;;;1.88;;
24521;SDS011;12680;57.804;12.190;2023-11-19T14:33:01;6.70;;;2.58;;
24521;SDS011;12680;57.804;12.190;2023-11-19T14:35:31;4.05;;;2.50;;
24521;SDS011;12680;57.804;12.190;2023-11-19T14:38:00;3.50;;;2.40;;
24521;SDS011;12680;57.804;12.190;2023-11-19T14:40:31;2.95;;;2.17;;
24521;SDS011;12680;57.804;12.190;2023-11-19T14:43:00;5.28;;;2.03;;
24521;SDS011;12680;57.804;12.190;2023-11-19T14:45:27;3.88;;;2.30;;
24521;SDS011;12680;57.804;12.190;2023-11-19T14:48:04;6.30;;;2.33;;
24521;SDS011;12680;57.804;12.190;2023-11-19T14:50:31;3.47;;;2.20;;
24521;SDS011;12680;57.804;12.190;2023-11-19T14:53:02;4.47;;;2.60;;
24521;SDS011;12680;57.804;12.190;2023-11-19T14:55:33;4.83;;;2.10;;
24521;SDS011;12680;57.804;12.190;2023-11-19T14:57:59;4.50;;;2.40;;
24521;SDS011;12680;57.804;12.190;2023-11-19T15:00:35;5.15;;;1.98;;
24521;SDS011;12680;57.804;12.190;2023-11-19T15:03:02;7.80;;;2.40;;
24521;SDS011;12680;57.804;12.190;2023-11-19T15:05:29;4.72;;;2.20;;
24521;SDS011;12680;57.804;12.190;2023-11-19T15:07:56;4.32;;;2.40;;